sensor_id;sensor_type;location;lat;lon;timestamp;P1;durP1;ratioP1;P2;durP2;ratioP2
27999;SDS011;15328;50.860;10.562;2023-08-20T00:04:49;5.88;;;3.70;;
27999;SDS011;15328;50.860;10.562;2023-08-20T00:09:51;4.18;;;3.58;;
27999;SDS011;15328;50.860;10.562;2023-08-20T00:19:56;4.47;;;3.75;;
27999;SDS011;15328;50.860;10.562;2023-08-20T00:24:57;4.40;;;4.00;;
27999;SDS011;15328;50.860;10.562;2023-08-20T00:29:58;4.78;;;4.28;;
27999;SDS011;15328;50.860;10.562;2023-08-20T00:35:00;4.90;;;3.90;;
27999;SDS011;15328;50.860;10.562;2023-08-20T00:40:01;4.97;;;3.72;;
27999;SDS011;15328;50.860;10.562;2023-08-20T00:45:04;4.25;;;3.85;;
27999;SDS011;15328;50.860;10.562;2023-08-20T00:50:05;4.70;;;4.10;;
27999;SDS011;15328;50.860;10.562;2023-08-20T00:55:10;4.47;;;3.88;;
27999;SDS011;15328;50.860;10.562;2023-08-20T01:00:13;4.07;;;3.67;;
27999;SDS011;15328;50.860;10.562;2023-08-20T01:05:13;4.30;;;3.70;;
27999;SDS011;15328;50.860;10.562;2023-08-20T01:10:29;5.47;;;3.75;;
27999;SDS011;15328;50.860;10.562;2023-08-20T01:15:46;4.30;;;3.90;;
27999;SDS011;15328;50.860;10.562;2023-08-20T01:20:48;4.17;;;3.70;;
27999;SDS011;15328;50.860;10.562;2023-08-20T01:30:55;5.18;;;4.13;;
27999;SDS011;15328;50.860;10.562;2023-08-20T01:35:57;4.78;;;4.38;;
27999;SDS011;15328;50.860;10.562;2023-08-20T01:40:58;4.30;;;3.90;;
27999;SDS011;15328;50.860;10.562;2023-08-20T01:45:58;4.17;;;3.77;;
27999;SDS011;15328;50.860;10.562;2023-08-20T01:50:59;5.05;;;3.70;;
27999;SDS011;15328;50.860;10.562;2023-08-20T01:56:00;4.85;;;4.15;;
27999;SDS011;15328;50.860;10.562;2023-08-20T02:01:00;5.57;;;3.80;;
27999;SDS011;15328;50.860;10.562;2023-08-20T02:06:00;5.87;;;4.03;;
27999;SDS011;15328;50.860;10.562;2023-08-20T02:11:01;5.43;;;3.70;;
27999;SDS011;15328;50.860;10.562;2023-08-20T02:16:03;5.60;;;3.85;;
27999;SDS011;15328;50.860;10.562;2023-08-20T02:21:04;4.53;;;4.00;;
27999;SDS011;15328;50.860;10.562;2023-08-20T02:26:04;4.50;;;3.85;;
27999;SDS011;15328;50.860;10.562;2023-08-20T02:31:05;4.00;;;3.60;;
27999;SDS011;15328;50.860;10.562;2023-08-20T02:36:05;4.80;;;4.27;;
27999;SDS011;15328;50.860;10.562;2023-08-20T02:41:05;6.17;;;3.97;;
27999;SDS011;15328;50.860;10.562;2023-08-20T02:46:06;4.60;;;4.10;;
27999;SDS011;15328;50.860;10.562;2023-08-20T02:51:06;4.33;;;3.93;;
27999;SDS011;15328;50.860;10.562;2023-08-20T02:56:06;3.67;;;3.17;;
27999;SDS011;15328;50.860;10.562;2023-08-20T03:01:07;4.37;;;3.97;;
27999;SDS011;15328;50.860;10.562;2023-08-20T03:06:17;5.43;;;4.50;;
27999;SDS011;15328;50.860;10.562;2023-08-20T03:11:18;5.82;;;4.78;;
27999;SDS011;15328;50.860;10.562;2023-08-20T03:16:18;6.10;;;4.70;;
27999;SDS011;15328;50.860;10.562;2023-08-20T03:21:19;5.80;;;4.73;;
27999;SDS011;15328;50.860;10.562;2023-08-20T03:26:19;5.82;;;5.18;;
27999;SDS011;15328;50.860;10.562;2023-08-20T03:31:20;5.77;;;5.20;;
27999;SDS011;15328;50.860;10.562;2023-08-20T03:36:20;5.87;;;5.27;;
27999;SDS011;15328;50.860;10.562;2023-08-20T03:41:20;8.40;;;5.23;;
27999;SDS011;15328;50.860;10.562;2023-08-20T03:46:21;5.63;;;5.10;;
27999;SDS011;15328;50.860;10.562;2023-08-20T03:51:21;7.63;;;5.33;;
27999;SDS011;15328;50.860;10.562;2023-08-20T03:56:21;6.67;;;5.47;;
27999;SDS011;15328;50.860;10.562;2023-08-20T04:01:22;6.82;;;5.85;;
27999;SDS011;15328;50.860;10.562;2023-08-20T04:06:22;6.70;;;5.57;;
27999;SDS011;15328;50.860;10.562;2023-08-20T04:11:23;6.65;;;5.90;;
27999;SDS011;15328;50.860;10.562;2023-08-20T04:16:23;6.87;;;6.00;;
27999;SDS011;15328;50.860;10.562;2023-08-20T04:21:23;6.50;;;5.67;;
27999;SDS011;15328;50.860;10.562;2023-08-20T04:26:24;7.20;;;6.50;;
27999;SDS011;15328;50.860;10.562;2023-08-20T04:31:24;7.47;;;6.10;;
27999;SDS011;15328;50.860;10.562;2023-08-20T04:36:24;6.77;;;5.73;;
27999;SDS011;15328;50.860;10.562;2023-08-20T04:41:25;8.63;;;6.30;;
27999;SDS011;15328;50.860;10.562;2023-08-20T04:46:25;7.70;;;6.20;;
27999;SDS011;15328;50.860;10.562;2023-08-20T04:51:25;6.03;;;5.43;;
27999;SDS011;15328;50.860;10.562;2023-08-20T04:56:26;6.83;;;6.03;;
27999;SDS011;15328;50.860;10.562;2023-08-20T05:01:26;6.60;;;5.57;;
27999;SDS011;15328;50.860;10.562;2023-08-20T05:06:26;6.40;;;5.73;;
27999;SDS011;15328;50.860;10.562;2023-08-20T05:11:27;6.73;;;5.40;;
27999;SDS011;15328;50.860;10.562;2023-08-20T05:16:28;5.97;;;5.38;;
27999;SDS011;15328;50.860;10.562;2023-08-20T05:21:28;5.67;;;5.07;;
27999;SDS011;15328;50.860;10.562;2023-08-20T05:26:29;6.07;;;5.47;;
27999;SDS011;15328;50.860;10.562;2023-08-20T05:31:29;6.50;;;5.90;;
27999;SDS011;15328;50.860;10.562;2023-08-20T05:36:30;5.57;;;5.05;;
27999;SDS011;15328;50.860;10.562;2023-08-20T05:41:30;5.77;;;5.03;;
27999;SDS011;15328;50.860;10.562;2023-08-20T05:46:30;8.00;;;5.90;;
27999;SDS011;15328;50.860;10.562;2023-08-20T05:51:31;6.13;;;5.53;;
27999;SDS011;15328;50.860;10.562;2023-08-20T05:56:31;6.10;;;5.50;;
27999;SDS011;15328;50.860;10.562;2023-08-20T06:01:31;5.23;;;4.73;;
27999;SDS011;15328;50.860;10.562;2023-08-20T06:06:32;5.03;;;4.53;;
27999;SDS011;15328;50.860;10.562;2023-08-20T06:11:32;4.50;;;4.10;;
27999;SDS011;15328;50.860;10.562;2023-08-20T06:16:33;4.35;;;3.83;;
27999;SDS011;15328;50.860;10.562;2023-08-20T06:21:33;3.63;;;3.30;;
27999;SDS011;15328;50.860;10.562;2023-08-20T06:26:33;4.83;;;4.40;;
27999;SDS011;15328;50.860;10.562;2023-08-20T06:31:34;5.20;;;4.53;;
27999;SDS011;15328;50.860;10.562;2023-08-20T06:36:35;7.72;;;5.38;;
27999;SDS011;15328;50.860;10.562;2023-08-20T06:41:36;6.15;;;5.55;;
27999;SDS011;15328;50.860;10.562;2023-08-20T06:46:36;7.25;;;6.05;;
27999;SDS011;15328;50.860;10.562;2023-08-20T06:51:37;6.25;;;5.65;;
27999;SDS011;15328;50.860;10.562;2023-08-20T06:56:37;7.53;;;6.30;;
27999;SDS011;15328;50.860;10.562;2023-08-20T07:01:37;7.20;;;6.33;;
27999;SDS011;15328;50.860;10.562;2023-08-20T07:06:38;8.23;;;7.03;;
27999;SDS011;15328;50.860;10.562;2023-08-20T07:11:39;7.68;;;6.18;;
27999;SDS011;15328;50.860;10.562;2023-08-20T07:16:39;6.57;;;5.83;;
27999;SDS011;15328;50.860;10.562;2023-08-20T07:21:39;6.20;;;5.20;;
27999;SDS011;15328;50.860;10.562;2023-08-20T07:26:40;7.00;;;5.60;;
27999;SDS011;15328;50.860;10.562;2023-08-20T07:31:40;7.20;;;6.07;;
27999;SDS011;15328;50.860;10.562;2023-08-20T07:36:41;7.17;;;6.17;;
27999;SDS011;15328;50.860;10.562;2023-08-20T07:41:42;8.60;;;6.65;;
27999;SDS011;15328;50.860;10.562;2023-08-20T07:46:42;6.27;;;5.60;;
27999;SDS011;15328;50.860;10.562;2023-08-20T07:51:43;5.67;;;5.17;;
27999;SDS011;15328;50.860;10.562;2023-08-20T07:56:43;6.77;;;6.00;;
27999;SDS011;15328;50.860;10.562;2023-08-20T08:01:43;7.00;;;6.03;;
27999;SDS011;15328;50.860;10.562;2023-08-20T08:06:46;8.02;;;6.40;;
27999;SDS011;15328;50.860;10.562;2023-08-20T08:11:47;7.50;;;5.80;;
27999;SDS011;15328;50.860;10.562;2023-08-20T08:16:48;7.25;;;6.30;;
27999;SDS011;15328;50.860;10.562;2023-08-20T08:21:49;7.03;;;6.15;;
27999;SDS011;15328;50.860;10.562;2023-08-20T08:26:49;9.67;;;6.87;;
27999;SDS011;15328;50.860;10.562;2023-08-20T08:31:49;6.30;;;5.70;;
27999;SDS011;15328;50.860;10.562;2023-08-20T08:36:50;7.18;;;6.00;;
27999;SDS011;15328;50.860;10.562;2023-08-20T08:41:51;6.55;;;5.80;;
27999;SDS011;15328;50.860;10.562;2023-08-20T08:46:54;6.93;;;6.18;;
27999;SDS011;15328;50.860;10.562;2023-08-20T08:51:56;7.72;;;6.70;;
27999;SDS011;15328;50.860;10.562;2023-08-20T08:56:57;8.45;;;6.75;;
27999;SDS011;15328;50.860;10.562;2023-08-20T09:01:58;9.57;;;7.55;;
27999;SDS011;15328;50.860;10.562;2023-08-20T09:06:58;7.78;;;6.60;;
27999;SDS011;15328;50.860;10.562;2023-08-20T09:11:59;6.90;;;6.20;;
27999;SDS011;15328;50.860;10.562;2023-08-20T09:17:00;8.07;;;6.30;;
27999;SDS011;15328;50.860;10.562;2023-08-20T09:22:01;8.50;;;7.60;;
27999;SDS011;15328;50.860;10.562;2023-08-20T09:27:05;10.95;;;8.10;;
27999;SDS011;15328;50.860;10.562;2023-08-20T09:32:06;10.23;;;8.25;;
27999;SDS011;15328;50.860;10.562;2023-08-20T09:37:13;9.35;;;8.40;;
27999;SDS011;15328;50.860;10.562;2023-08-20T09:42:14;9.77;;;8.65;;
27999;SDS011;15328;50.860;10.562;2023-08-20T09:47:18;10.30;;;8.73;;
27999;SDS011;15328;50.860;10.562;2023-08-20T09:52:23;8.82;;;7.93;;
27999;SDS011;15328;50.860;10.562;2023-08-20T09:57:32;9.25;;;8.20;;
27999;SDS011;15328;50.860;10.562;2023-08-20T10:02:37;11.23;;;8.70;;
27999;SDS011;15328;50.860;10.562;2023-08-20T10:07:39;9.50;;;8.00;;
27999;SDS011;15328;50.860;10.562;2023-08-20T10:12:40;9.27;;;8.37;;
27999;SDS011;15328;50.860;10.562;2023-08-20T10:17:42;9.70;;;8.63;;
27999;SDS011;15328;50.860;10.562;2023-08-20T10:22:44;8.75;;;7.85;;
27999;SDS011;15328;50.860;10.562;2023-08-20T10:27:45;10.65;;;8.07;;
27999;SDS011;15328;50.860;10.562;2023-08-20T10:32:49;10.48;;;8.13;;
27999;SDS011;15328;50.860;10.562;2023-08-20T10:38:03;9.73;;;7.57;;
27999;SDS011;15328;50.860;10.562;2023-08-20T10:43:04;11.65;;;8.40;;
27999;SDS011;15328;50.860;10.562;2023-08-20T10:48:05;9.80;;;8.77;;
27999;SDS011;15328;50.860;10.562;2023-08-20T10:53:06;10.02;;;8.32;;
27999;SDS011;15328;50.860;10.562;2023-08-20T10:58:06;9.95;;;8.95;;
27999;SDS011;15328;50.860;10.562;2023-08-20T11:03:07;8.67;;;7.77;;
27999;SDS011;15328;50.860;10.562;2023-08-20T11:08:07;9.55;;;8.65;;
27999;SDS011;15328;50.860;10.562;2023-08-20T11:13:08;9.85;;;8.85;;
27999;SDS011;15328;50.860;10.562;2023-08-20T11:18:08;9.63;;;8.73;;
27999;SDS011;15328;50.860;10.562;2023-08-20T11:23:09;11.43;;;9.77;;
27999;SDS011;15328;50.860;10.562;2023-08-20T11:28:12;9.68;;;8.60;;
27999;SDS011;15328;50.860;10.562;2023-08-20T11:33:12;8.93;;;8.02;;
27999;SDS011;15328;50.860;10.562;2023-08-20T11:38:13;9.30;;;8.37;;
27999;SDS011;15328;50.860;10.562;2023-08-20T11:43:14;10.07;;;9.07;;
27999;SDS011;15328;50.860;10.562;2023-08-20T11:48:15;10.80;;;9.73;;
27999;SDS011;15328;50.860;10.562;2023-08-20T11:53:20;10.35;;;9.25;;
27999;SDS011;15328;50.860;10.562;2023-08-20T11:58:23;10.32;;;9.32;;
27999;SDS011;15328;50.860;10.562;2023-08-20T12:03:28;10.03;;;9.03;;
27999;SDS011;15328;50.860;10.562;2023-08-20T12:08:29;9.43;;;8.52;;
27999;SDS011;15328;50.860;10.562;2023-08-20T12:13:37;9.48;;;8.57;;
27999;SDS011;15328;50.860;10.562;2023-08-20T12:18:38;10.03;;;8.97;;
27999;SDS011;15328;50.860;10.562;2023-08-20T12:23:39;9.23;;;8.30;;
27999;SDS011;15328;50.860;10.562;2023-08-20T12:28:39;9.55;;;8.57;;
27999;SDS011;15328;50.860;10.562;2023-08-20T12:33:41;9.88;;;8.93;;
27999;SDS011;15328;50.860;10.562;2023-08-20T12:38:41;9.90;;;8.50;;
27999;SDS011;15328;50.860;10.562;2023-08-20T12:43:42;9.60;;;8.60;;
27999;SDS011;15328;50.860;10.562;2023-08-20T12:48:42;10.57;;;9.20;;
27999;SDS011;15328;50.860;10.562;2023-08-20T12:53:43;9.30;;;8.35;;
27999;SDS011;15328;50.860;10.562;2023-08-20T12:58:44;11.63;;;9.10;;
27999;SDS011;15328;50.860;10.562;2023-08-20T13:03:44;10.13;;;8.93;;
27999;SDS011;15328;50.860;10.562;2023-08-20T13:08:45;8.45;;;7.63;;
27999;SDS011;15328;50.860;10.562;2023-08-20T13:13:46;8.95;;;7.75;;
27999;SDS011;15328;50.860;10.562;2023-08-20T13:18:46;8.98;;;8.18;;
27999;SDS011;15328;50.860;10.562;2023-08-20T13:23:47;9.05;;;8.15;;
27999;SDS011;15328;50.860;10.562;2023-08-20T13:28:47;11.47;;;9.20;;
27999;SDS011;15328;50.860;10.562;2023-08-20T13:33:48;8.93;;;8.02;;
27999;SDS011;15328;50.860;10.562;2023-08-20T13:38:49;11.68;;;8.88;;
27999;SDS011;15328;50.860;10.562;2023-08-20T13:43:50;10.05;;;8.00;;
27999;SDS011;15328;50.860;10.562;2023-08-20T13:48:50;9.37;;;8.47;;
27999;SDS011;15328;50.860;10.562;2023-08-20T13:53:50;8.77;;;7.87;;
27999;SDS011;15328;50.860;10.562;2023-08-20T13:58:51;8.88;;;8.07;;
27999;SDS011;15328;50.860;10.562;2023-08-20T14:03:53;9.07;;;7.88;;
27999;SDS011;15328;50.860;10.562;2023-08-20T14:08:54;9.63;;;8.73;;
27999;SDS011;15328;50.860;10.562;2023-08-20T14:13:57;9.43;;;8.07;;
27999;SDS011;15328;50.860;10.562;2023-08-20T14:18:58;9.17;;;8.27;;
27999;SDS011;15328;50.860;10.562;2023-08-20T14:23:58;9.70;;;8.67;;
27999;SDS011;15328;50.860;10.562;2023-08-20T14:28:58;11.73;;;8.27;;
27999;SDS011;15328;50.860;10.562;2023-08-20T14:33:59;9.10;;;8.13;;
27999;SDS011;15328;50.860;10.562;2023-08-20T14:38:59;8.57;;;7.67;;
27999;SDS011;15328;50.860;10.562;2023-08-20T14:44:00;7.50;;;6.70;;
27999;SDS011;15328;50.860;10.562;2023-08-20T14:49:00;8.70;;;7.90;;
27999;SDS011;15328;50.860;10.562;2023-08-20T14:54:00;9.20;;;8.30;;
27999;SDS011;15328;50.860;10.562;2023-08-20T14:59:01;9.70;;;7.80;;
27999;SDS011;15328;50.860;10.562;2023-08-20T15:04:01;8.07;;;7.27;;
27999;SDS011;15328;50.860;10.562;2023-08-20T15:09:02;8.50;;;7.60;;
27999;SDS011;15328;50.860;10.562;2023-08-20T15:14:03;8.40;;;7.60;;
27999;SDS011;15328;50.860;10.562;2023-08-20T15:19:03;7.53;;;6.75;;
27999;SDS011;15328;50.860;10.562;2023-08-20T15:24:04;7.27;;;6.57;;
27999;SDS011;15328;50.860;10.562;2023-08-20T15:29:04;7.20;;;6.53;;
27999;SDS011;15328;50.860;10.562;2023-08-20T15:34:05;7.13;;;6.53;;
27999;SDS011;15328;50.860;10.562;2023-08-20T15:39:06;7.45;;;6.75;;
27999;SDS011;15328;50.860;10.562;2023-08-20T15:44:06;7.27;;;6.40;;
27999;SDS011;15328;50.860;10.562;2023-08-20T15:49:07;6.68;;;6.07;;
27999;SDS011;15328;50.860;10.562;2023-08-20T15:54:08;8.23;;;7.43;;
27999;SDS011;15328;50.860;10.562;2023-08-20T15:59:08;8.53;;;7.63;;
27999;SDS011;15328;50.860;10.562;2023-08-20T16:04:09;8.57;;;7.77;;
27999;SDS011;15328;50.860;10.562;2023-08-20T16:09:09;8.65;;;7.72;;
27999;SDS011;15328;50.860;10.562;2023-08-20T16:14:11;7.38;;;6.68;;
27999;SDS011;15328;50.860;10.562;2023-08-20T16:19:11;8.87;;;7.17;;
27999;SDS011;15328;50.860;10.562;2023-08-20T16:24:11;8.15;;;7.32;;
27999;SDS011;15328;50.860;10.562;2023-08-20T16:29:12;7.53;;;6.83;;
27999;SDS011;15328;50.860;10.562;2023-08-20T16:34:12;8.20;;;7.40;;
27999;SDS011;15328;50.860;10.562;2023-08-20T16:39:12;7.80;;;6.70;;
27999;SDS011;15328;50.860;10.562;2023-08-20T16:44:13;7.20;;;6.50;;
27999;SDS011;15328;50.860;10.562;2023-08-20T16:49:14;6.90;;;6.30;;
27999;SDS011;15328;50.860;10.562;2023-08-20T16:54:15;6.43;;;5.60;;
27999;SDS011;15328;50.860;10.562;2023-08-20T16:59:15;5.40;;;4.90;;
27999;SDS011;15328;50.860;10.562;2023-08-20T17:04:16;5.80;;;5.30;;
27999;SDS011;15328;50.860;10.562;2023-08-20T17:09:17;7.53;;;6.00;;
27999;SDS011;15328;50.860;10.562;2023-08-20T17:14:18;7.35;;;6.30;;
27999;SDS011;15328;50.860;10.562;2023-08-20T17:19:19;6.70;;;6.00;;
27999;SDS011;15328;50.860;10.562;2023-08-20T17:24:21;5.97;;;5.38;;
27999;SDS011;15328;50.860;10.562;2023-08-20T17:29:21;5.50;;;5.00;;
27999;SDS011;15328;50.860;10.562;2023-08-20T17:34:21;6.50;;;5.90;;
27999;SDS011;15328;50.860;10.562;2023-08-20T17:39:22;7.20;;;5.70;;
27999;SDS011;15328;50.860;10.562;2023-08-20T17:44:22;6.82;;;5.55;;
27999;SDS011;15328;50.860;10.562;2023-08-20T17:49:23;6.40;;;5.80;;
27999;SDS011;15328;50.860;10.562;2023-08-20T17:54:23;6.70;;;6.00;;
27999;SDS011;15328;50.860;10.562;2023-08-20T17:59:23;6.67;;;6.07;;
27999;SDS011;15328;50.860;10.562;2023-08-20T18:04:24;6.97;;;6.28;;
27999;SDS011;15328;50.860;10.562;2023-08-20T18:09:24;8.35;;;6.60;;
27999;SDS011;15328;50.860;10.562;2023-08-20T18:14:24;7.53;;;6.77;;
27999;SDS011;15328;50.860;10.562;2023-08-20T18:19:25;6.80;;;6.17;;
27999;SDS011;15328;50.860;10.562;2023-08-20T18:24:25;7.57;;;6.83;;
27999;SDS011;15328;50.860;10.562;2023-08-20T18:29:25;7.37;;;6.67;;
27999;SDS011;15328;50.860;10.562;2023-08-20T18:34:26;8.30;;;7.47;;
27999;SDS011;15328;50.860;10.562;2023-08-20T18:39:27;7.88;;;7.07;;
27999;SDS011;15328;50.860;10.562;2023-08-20T18:44:28;8.10;;;7.30;;
27999;SDS011;15328;50.860;10.562;2023-08-20T18:49:28;9.47;;;7.60;;
27999;SDS011;15328;50.860;10.562;2023-08-20T18:54:28;8.70;;;7.80;;
27999;SDS011;15328;50.860;10.562;2023-08-20T18:59:29;9.35;;;8.40;;
27999;SDS011;15328;50.860;10.562;2023-08-20T19:04:29;9.18;;;8.27;;
27999;SDS011;15328;50.860;10.562;2023-08-20T19:09:30;10.30;;;8.07;;
27999;SDS011;15328;50.860;10.562;2023-08-20T19:14:30;9.45;;;8.30;;
27999;SDS011;15328;50.860;10.562;2023-08-20T19:19:31;10.70;;;9.63;;
27999;SDS011;15328;50.860;10.562;2023-08-20T19:24:31;9.93;;;8.80;;
27999;SDS011;15328;50.860;10.562;2023-08-20T19:29:31;10.53;;;9.37;;
27999;SDS011;15328;50.860;10.562;2023-08-20T19:34:32;10.27;;;9.27;;
27999;SDS011;15328;50.860;10.562;2023-08-20T19:39:33;9.75;;;8.75;;
27999;SDS011;15328;50.860;10.562;2023-08-20T19:44:34;12.82;;;9.45;;
27999;SDS011;15328;50.860;10.562;2023-08-20T19:49:37;11.60;;;9.02;;
27999;SDS011;15328;50.860;10.562;2023-08-20T19:54:37;10.73;;;9.63;;
27999;SDS011;15328;50.860;10.562;2023-08-20T19:59:38;10.97;;;9.77;;
27999;SDS011;15328;50.860;10.562;2023-08-20T20:04:38;11.87;;;10.47;;
27999;SDS011;15328;50.860;10.562;2023-08-20T20:09:38;12.00;;;10.23;;
27999;SDS011;15328;50.860;10.562;2023-08-20T20:14:39;11.53;;;9.97;;
27999;SDS011;15328;50.860;10.562;2023-08-20T20:19:39;11.23;;;10.10;;
27999;SDS011;15328;50.860;10.562;2023-08-20T20:24:39;11.93;;;10.60;;
27999;SDS011;15328;50.860;10.562;2023-08-20T20:29:40;11.55;;;10.13;;
27999;SDS011;15328;50.860;10.562;2023-08-20T20:34:41;11.45;;;10.13;;
27999;SDS011;15328;50.860;10.562;2023-08-20T20:39:41;11.37;;;9.90;;
27999;SDS011;15328;50.860;10.562;2023-08-20T20:44:42;12.77;;;10.17;;
27999;SDS011;15328;50.860;10.562;2023-08-20T20:49:43;11.95;;;10.23;;
27999;SDS011;15328;50.860;10.562;2023-08-20T20:54:43;11.83;;;9.37;;
27999;SDS011;15328;50.860;10.562;2023-08-20T20:59:43;12.07;;;10.03;;
27999;SDS011;15328;50.860;10.562;2023-08-20T21:04:44;11.77;;;9.97;;
27999;SDS011;15328;50.860;10.562;2023-08-20T21:09:44;10.73;;;9.63;;
27999;SDS011;15328;50.860;10.562;2023-08-20T21:14:44;12.33;;;9.60;;
27999;SDS011;15328;50.860;10.562;2023-08-20T21:19:45;11.50;;;10.30;;
27999;SDS011;15328;50.860;10.562;2023-08-20T21:24:45;10.97;;;9.47;;
27999;SDS011;15328;50.860;10.562;2023-08-20T21:29:46;10.20;;;8.77;;
27999;SDS011;15328;50.860;10.562;2023-08-20T21:34:46;11.20;;;9.77;;
27999;SDS011;15328;50.860;10.562;2023-08-20T21:39:48;10.77;;;9.40;;
27999;SDS011;15328;50.860;10.562;2023-08-20T21:44:49;12.13;;;9.50;;
27999;SDS011;15328;50.860;10.562;2023-08-20T21:49:49;10.40;;;9.27;;
27999;SDS011;15328;50.860;10.562;2023-08-20T21:54:50;11.98;;;10.25;;
27999;SDS011;15328;50.860;10.562;2023-08-20T21:59:51;12.32;;;10.25;;
27999;SDS011;15328;50.860;10.562;2023-08-20T22:05:09;13.88;;;11.55;;
27999;SDS011;15328;50.860;10.562;2023-08-20T22:10:17;11.88;;;10.60;;
27999;SDS011;15328;50.860;10.562;2023-08-20T22:15:18;12.63;;;10.43;;
27999;SDS011;15328;50.860;10.562;2023-08-20T22:20:19;11.97;;;10.60;;
27999;SDS011;15328;50.860;10.562;2023-08-20T22:25:19;12.00;;;10.63;;
27999;SDS011;15328;50.860;10.562;2023-08-20T22:30:22;12.30;;;10.67;;
27999;SDS011;15328;50.860;10.562;2023-08-20T22:35:23;12.88;;;11.23;;
27999;SDS011;15328;50.860;10.562;2023-08-20T22:40:23;11.47;;;10.37;;
27999;SDS011;15328;50.860;10.562;2023-08-20T22:45:23;12.13;;;10.83;;
27999;SDS011;15328;50.860;10.562;2023-08-20T22:50:24;12.70;;;10.73;;
27999;SDS011;15328;50.860;10.562;2023-08-20T22:55:25;12.98;;;10.68;;
27999;SDS011;15328;50.860;10.562;2023-08-20T23:00:27;11.52;;;10.02;;
27999;SDS011;15328;50.860;10.562;2023-08-20T23:05:27;11.03;;;9.63;;
27999;SDS011;15328;50.860;10.562;2023-08-20T23:10:28;12.32;;;10.23;;
27999;SDS011;15328;50.860;10.562;2023-08-20T23:15:28;11.17;;;10.03;;
27999;SDS011;15328;50.860;10.562;2023-08-20T23:20:28;11.17;;;9.67;;
27999;SDS011;15328;50.860;10.562;2023-08-20T23:25:29;10.60;;;9.43;;
27999;SDS011;15328;50.860;10.562;2023-08-20T23:30:29;12.13;;;10.10;;
27999;SDS011;15328;50.860;10.562;2023-08-20T23:35:29;12.15;;;9.65;;
27999;SDS011;15328;50.860;10.562;2023-08-20T23:40:30;13.50;;;10.00;;
27999;SDS011;15328;50.860;10.562;2023-08-20T23:45:30;10.83;;;9.20;;
27999;SDS011;15328;50.860;10.562;2023-08-20T23:50:31;10.20;;;8.55;;
27999;SDS011;15328;50.860;10.562;2023-08-20T23:55:31;9.83;;;8.33;;
